Newtown Square, Pennsylvania
Current Conditions -  °F | °C
As of 6:54 PM on Saturday 25 Oct 2014 (Local Time) from KPHL Reporting Station
Broken Clouds Broken Clouds  
Wind Chill: 66°   Ceiling: 7000
Heat Index: 66°   Visibility: 10mi
Dew Point: 45°   Wind: 10mph
Humidity: 47%   Direction: 220°SW
Pressure: 29.69"   Gusts: NA
Location:  39.99°N, 75.4°W
Report Text: KPHL 252254Z 22009KT 10SM BKN070 19/07 A2969 RMK AO2 SLP055 T01890072
Loading
Personal Weather Stations






























Interactive Weather Map
Tropical Storm Tracking
New forecast layout! Learn more

10-Day Weather Forecast

Advertisements
Track Severe Weather on mobile